Time;durP1;ratioP1;P1;durP2;ratioP2;P2;SDS_P1;SDS_P2;PMS_P1;PMS_P2;Temp;Humidity;BMP_temperature;BMP_pressure;BME280_temperature;BME280_humidity;BME280_pressure;Samples;Min_cycle;Max_cycle;Signal;HPM_P1;HPM_P2
2022/01/29 00:01:44;;;;;;;;;11.00;9.75;;;;;20.12;34.72;103153.25;5070626;28;51118;-46
2022/01/29 00:04:11;;;;;;;;;9.50;7.75;;;;;20.11;34.54;103151.53;5065515;28;51171;-44
2022/01/29 00:06:36;;;;;;;;;9.50;8.00;;;;;20.08;34.95;103138.06;5065072;28;51205;-44
2022/01/29 00:09:02;;;;;;;;;7.25;6.50;;;;;20.08;34.65;103139.97;5067217;28;51031;-46
2022/01/29 00:11:30;;;;;;;;;10.50;9.50;;;;;20.04;34.87;103150.44;5067720;28;52432;-44
2022/01/29 00:13:55;;;;;;;;;6.00;5.50;;;;;20.03;34.47;103145.13;5064592;28;51053;-44
2022/01/29 00:16:21;;;;;;;;;6.75;6.75;;;;;20.02;34.58;103132.38;5066168;28;51747;-46
2022/01/29 00:18:46;;;;;;;;;7.50;6.75;;;;;20.01;34.86;103137.03;5067205;28;51002;-43
2022/01/29 00:21:11;;;;;;;;;7.75;7.75;;;;;19.98;34.50;103129.06;5067580;28;51129;-44
2022/01/29 00:23:37;;;;;;;;;7.75;7.75;;;;;19.98;34.83;103126.31;5065661;28;50971;-43
2022/01/29 00:26:02;;;;;;;;;7.25;7.25;;;;;19.96;34.87;103120.13;5066844;28;51282;-45
2022/01/29 00:28:28;;;;;;;;;7.50;6.50;;;;;19.94;34.43;103113.06;5066424;27;51355;-44
2022/01/29 00:30:54;;;;;;;;;7.00;6.75;;;;;19.93;34.80;103114.09;5070972;28;50900;-48
2022/01/29 00:33:19;;;;;;;;;7.00;7.00;;;;;19.90;34.56;103107.03;5060912;28;51132;-44
2022/01/29 00:35:44;;;;;;;;;8.50;6.75;;;;;19.89;34.82;103102.53;5063124;28;50999;-45
2022/01/29 00:38:10;;;;;;;;;8.75;6.75;;;;;19.87;34.89;103094.47;5064423;28;50963;-45
2022/01/29 00:40:38;;;;;;;;;7.00;7.00;;;;;19.86;34.91;103091.88;5064480;28;51400;-45
2022/01/29 00:43:05;;;;;;;;;10.00;8.50;;;;;19.85;34.86;103095.66;5062749;28;50985;-45
2022/01/29 00:45:30;;;;;;;;;6.00;5.75;;;;;19.84;35.01;103093.94;5063525;28;51922;-46
2022/01/29 00:47:56;;;;;;;;;7.00;5.50;;;;;19.82;34.91;103096.88;5064952;28;51867;-46
2022/01/29 00:50:21;;;;;;;;;6.00;6.00;;;;;19.80;34.62;103085.16;5064257;28;51408;-46
2022/01/29 00:52:50;;;;;;;;;7.00;6.25;;;;;19.79;35.06;103080.66;5063637;28;51080;-49
2022/01/29 00:55:15;;;;;;;;;6.50;6.50;;;;;19.78;35.00;103086.34;5067353;28;50984;-49
2022/01/29 00:57:42;;;;;;;;;8.00;6.75;;;;;19.77;34.90;103081.88;5070303;28;51045;-53
2022/01/29 01:00:11;;;;;;;;;6.75;5.50;;;;;19.76;34.97;103077.38;5060028;28;51185;-52
2022/01/29 01:02:37;;;;;;;;;9.00;7.00;;;;;19.75;35.06;103081.16;5064866;28;50858;-52
2022/01/29 01:05:03;;;;;;;;;9.25;6.50;;;;;19.73;35.18;103081.34;5066882;27;51029;-52
2022/01/29 01:07:29;;;;;;;;;7.50;7.00;;;;;19.73;34.92;103066.72;5069854;28;51013;-50
2022/01/29 01:09:54;;;;;;;;;5.25;5.25;;;;;19.71;35.17;103060.53;5070731;28;51158;-48
2022/01/29 01:12:19;;;;;;;;;5.75;5.75;;;;;19.70;35.14;103059.69;5073137;28;51059;-52
2022/01/29 01:14:45;;;;;;;;;7.50;7.50;;;;;19.69;34.96;103063.41;5068536;28;51135;-49
2022/01/29 01:17:10;;;;;;;;;5.50;4.50;;;;;19.68;35.17;103069.94;5067830;28;51005;-51
2022/01/29 01:19:35;;;;;;;;;5.50;5.50;;;;;19.68;34.82;103063.59;5061613;28;51052;-51
2022/01/29 01:22:01;;;;;;;;;4.75;4.25;;;;;19.66;34.80;103062.91;5064942;28;51094;-50
2022/01/29 01:24:27;;;;;;;;;5.00;5.00;;;;;19.63;35.05;103064.09;5075461;27;51058;-50
2022/01/29 01:26:52;;;;;;;;;5.75;5.75;;;;;19.62;35.37;103065.13;5064123;28;51112;-52
2022/01/29 01:29:19;;;;;;;;;9.25;7.50;;;;;19.62;34.98;103061.50;5068915;28;51059;-49
2022/01/29 01:31:45;;;;;;;;;5.25;5.00;;;;;19.62;35.21;103064.25;5076158;28;51212;-50
2022/01/29 01:34:17;;;;;;;;;7.25;5.00;;;;;19.60;35.24;103064.44;5068025;27;51800;-54
2022/01/29 01:37:06;;;;;;;;;7.75;6.75;;;;;19.59;35.09;103069.06;5068153;28;51313;-53
2022/01/29 01:39:34;;;;;;;;;5.00;5.00;;;;;19.58;34.98;103072.81;5073949;27;51233;-52
2022/01/29 01:42:04;;;;;;;;;6.00;5.25;;;;;19.57;35.26;103070.22;5070016;28;51527;-52
2022/01/29 01:44:48;;;;;;;;;7.50;6.00;;;;;19.56;35.23;103063.88;5061812;28;51090;-50
2022/01/29 01:47:14;;;;;;;;;6.00;5.25;;;;;19.56;35.33;103063.00;5070019;28;51012;-52
2022/01/29 01:49:40;;;;;;;;;5.50;5.00;;;;;19.54;35.31;103060.41;5068370;28;51165;-53
2022/01/29 01:52:09;;;;;;;;;6.50;5.25;;;;;19.53;35.21;103055.94;5066272;28;51272;-53
2022/01/29 01:54:34;;;;;;;;;5.25;5.00;;;;;19.52;35.09;103056.97;5060528;28;51770;-54
2022/01/29 01:57:00;;;;;;;;;7.00;6.50;;;;;19.52;35.35;103048.72;5070213;28;51067;-50
2022/01/29 01:59:27;;;;;;;;;5.00;4.50;;;;;19.51;35.19;103051.63;5070225;28;51913;-52
2022/01/29 02:01:52;;;;;;;;;7.25;5.50;;;;;19.49;35.39;103056.44;5067552;28;51123;-52
2022/01/29 02:04:18;;;;;;;;;4.25;3.75;;;;;19.49;35.45;103049.03;5066633;28;51346;-51
2022/01/29 02:06:44;;;;;;;;;5.00;5.00;;;;;19.48;35.51;103046.44;5068418;28;51142;-52
2022/01/29 02:09:13;;;;;;;;;6.50;5.00;;;;;19.47;35.29;103037.31;5058834;28;51082;-53
2022/01/29 02:11:52;;;;;;;;;5.50;5.50;;;;;19.47;35.44;103034.56;5063264;28;50992;-54
2022/01/29 02:14:20;;;;;;;;;5.00;5.00;;;;;19.45;35.40;103031.13;5066928;28;51080;-52
2022/01/29 02:16:45;;;;;;;;;7.25;7.25;;;;;19.45;35.54;103033.03;5066628;28;51039;-54
2022/01/29 02:19:11;;;;;;;;;4.50;4.25;;;;;19.44;35.49;103029.41;5067469;28;50995;-51
2022/01/29 02:21:37;;;;;;;;;6.00;5.00;;;;;19.42;35.49;103022.38;5071380;28;51273;-51
2022/01/29 02:24:02;;;;;;;;;6.50;6.25;;;;;19.43;35.26;103016.69;5069554;28;52409;-52
2022/01/29 02:26:28;;;;;;;;;5.25;4.25;;;;;19.42;35.33;103017.72;5071052;28;51900;-51
2022/01/29 02:28:54;;;;;;;;;4.75;4.00;;;;;19.42;35.42;103019.63;5065535;27;51269;-53
2022/01/29 02:31:20;;;;;;;;;5.25;5.00;;;;;19.41;35.46;103020.66;5064230;28;51113;-52
2022/01/29 02:33:45;;;;;;;;;5.00;5.00;;;;;19.40;35.60;103017.03;5064929;28;52613;-51
2022/01/29 02:36:11;;;;;;;;;5.75;5.75;;;;;19.40;35.52;103005.19;5063658;28;51022;-51
2022/01/29 02:38:36;;;;;;;;;7.25;5.00;;;;;19.37;35.58;103003.59;5072539;28;51125;-51
2022/01/29 02:41:04;;;;;;;;;2.00;2.00;;;;;19.37;35.42;102995.34;5061840;28;52252;-52
2022/01/29 02:43:41;;;;;;;;;6.50;5.50;;;;;19.38;35.86;102996.22;5070397;28;52419;-49
2022/01/29 02:46:20;;;;;;;;;4.00;3.75;;;;;19.37;35.43;102997.25;5064864;28;51038;-54
2022/01/29 02:48:50;;;;;;;;;6.00;6.00;;;;;19.35;35.47;102983.66;5069966;28;51197;-50
2022/01/29 02:51:17;;;;;;;;;6.00;5.25;;;;;19.35;35.65;102983.66;5059108;28;50911;-49
2022/01/29 02:53:43;;;;;;;;;7.75;4.75;;;;;19.33;35.51;102978.34;5067345;28;50845;-52
2022/01/29 02:56:09;;;;;;;;;5.75;5.00;;;;;19.33;35.42;102969.22;5064164;27;51179;-53
2022/01/29 02:58:35;;;;;;;;;4.00;4.00;;;;;19.32;35.76;102979.38;5072672;28;51333;-52
2022/01/29 03:01:01;;;;;;;;;6.25;5.00;;;;;19.31;35.63;102960.28;5060751;28;50963;-54
2022/01/29 03:03:26;;;;;;;;;4.00;3.25;;;;;19.31;35.68;102965.78;5068805;28;51963;-52
2022/01/29 03:05:52;;;;;;;;;4.00;4.00;;;;;19.29;35.53;102957.72;5072089;28;51094;-51
2022/01/29 03:08:17;;;;;;;;;3.00;3.00;;;;;19.30;35.79;102964.94;5069453;28;51128;-53
2022/01/29 03:10:43;;;;;;;;;4.00;4.00;;;;;19.30;35.80;102953.09;5074503;28;51078;-52
2022/01/29 03:13:09;;;;;;;;;4.00;4.00;;;;;19.29;35.67;102956.84;5063985;28;51755;-49
2022/01/29 03:15:35;;;;;;;;;4.00;4.00;;;;;19.28;35.56;102950.50;5065245;28;51041;-49
2022/01/29 03:18:00;;;;;;;;;5.00;3.25;;;;;19.27;35.66;102945.16;5065711;28;51027;-49
2022/01/29 03:20:26;;;;;;;;;7.00;4.75;;;;;19.27;35.79;102954.25;5065255;28;51175;-53
2022/01/29 03:22:51;;;;;;;;;2.75;2.75;;;;;19.26;35.62;102948.91;5066766;28;51353;-53
2022/01/29 03:25:17;;;;;;;;;3.50;3.50;;;;;19.25;35.83;102950.81;5062486;28;51146;-53
2022/01/29 03:27:42;;;;;;;;;2.75;2.75;;;;;19.25;35.79;102947.19;5072282;28;51016;-51
2022/01/29 03:30:08;;;;;;;;;4.00;3.25;;;;;19.24;36.00;102948.22;5067268;28;51256;-51
2022/01/29 03:32:34;;;;;;;;;6.00;5.75;;;;;19.24;36.01;102942.72;5066934;28;52546;-52
2022/01/29 03:35:00;;;;;;;;;3.50;2.25;;;;;19.23;35.80;102944.63;5070613;27;51040;-51
2022/01/29 03:37:25;;;;;;;;;3.00;3.00;;;;;19.22;35.79;102953.03;5070487;28;50861;-55
2022/01/29 03:39:51;;;;;;;;;3.00;2.50;;;;;19.23;35.73;102952.00;5065713;28;50990;-50
2022/01/29 03:42:17;;;;;;;;;6.25;5.00;;;;;19.22;35.73;102955.78;5067266;28;51060;-50
2022/01/29 03:44:43;;;;;;;;;4.00;3.75;;;;;19.20;35.95;102950.44;5068915;28;51007;-53
2022/01/29 03:47:08;;;;;;;;;3.75;3.75;;;;;19.20;35.77;102947.69;5065096;28;51118;-53
2022/01/29 03:49:34;;;;;;;;;2.75;2.50;;;;;19.20;35.78;102949.59;5060939;28;51420;-52
2022/01/29 03:51:59;;;;;;;;;3.00;3.00;;;;;19.19;35.77;102945.13;5068369;28;52743;-52
2022/01/29 03:54:25;;;;;;;;;3.00;3.00;;;;;19.20;36.13;102944.09;5063136;28;51141;-50
2022/01/29 03:56:50;;;;;;;;;3.00;3.00;;;;;19.18;35.68;102937.91;5069129;28;51026;-53
2022/01/29 03:59:15;;;;;;;;;3.00;3.00;;;;;19.18;36.11;102943.41;5069114;28;51065;-52
2022/01/29 04:01:41;;;;;;;;;3.25;3.25;;;;;19.16;35.87;102934.44;5066909;28;50900;-49
2022/01/29 04:04:06;;;;;;;;;4.25;3.00;;;;;19.16;36.01;102943.53;5066302;27;50957;-51
2022/01/29 04:06:32;;;;;;;;;5.50;3.00;;;;;19.16;36.01;102946.28;5065302;28;50993;-55
2022/01/29 04:08:57;;;;;;;;;5.00;4.75;;;;;19.14;35.85;102945.59;5066157;28;50977;-53
2022/01/29 04:11:23;;;;;;;;;3.00;3.00;;;;;19.13;35.91;102945.75;5065112;28;51674;-54
2022/01/29 04:13:49;;;;;;;;;2.75;2.75;;;;;19.14;36.05;102947.47;5065078;28;50983;-54
2022/01/29 04:16:16;;;;;;;;;2.50;2.50;;;;;19.13;35.96;102932.88;5064128;28;51023;-52
2022/01/29 04:18:42;;;;;;;;;3.25;3.25;;;;;19.13;36.04;102935.63;5066085;27;51329;-49
2022/01/29 04:21:08;;;;;;;;;3.00;3.00;;;;;19.12;36.10;102936.66;5061040;28;51807;-52
2022/01/29 04:23:34;;;;;;;;;2.50;2.25;;;;;19.12;35.75;102931.16;5067992;28;51224;-51
2022/01/29 04:26:01;;;;;;;;;3.25;3.25;;;;;19.12;36.05;102927.56;5061346;28;50930;-52
2022/01/29 04:28:31;;;;;;;;;4.75;2.50;;;;;19.12;35.92;102930.31;5062095;28;51139;-52
2022/01/29 04:31:02;;;;;;;;;3.00;3.00;;;;;19.11;36.25;102934.09;5069949;28;52751;-53
2022/01/29 04:33:30;;;;;;;;;4.50;3.75;;;;;19.10;36.06;102940.59;5068770;28;52249;-52
2022/01/29 04:36:00;;;;;;;;;3.00;2.00;;;;;19.09;36.15;102934.25;5067427;28;51247;-51
2022/01/29 04:38:27;;;;;;;;;2.75;1.75;;;;;19.10;36.01;102935.97;5073592;28;51038;-52
2022/01/29 04:40:55;;;;;;;;;5.00;2.00;;;;;19.09;36.08;102947.13;5069987;28;51931;-58
2022/01/29 04:43:20;;;;;;;;;5.75;4.25;;;;;19.09;36.10;102936.13;5068453;28;51323;-52
2022/01/29 04:45:46;;;;;;;;;2.25;2.25;;;;;19.09;35.97;102933.38;5068347;28;51316;-53
2022/01/29 04:48:11;;;;;;;;;2.50;2.50;;;;;19.08;36.26;102939.91;5074495;28;51302;-48
2022/01/29 04:50:37;;;;;;;;;3.25;3.25;;;;;19.07;36.42;102932.66;5068390;28;51914;-51
2022/01/29 04:53:03;;;;;;;;;3.00;3.00;;;;;19.07;36.09;102932.66;5069937;28;51142;-50
2022/01/29 04:55:28;;;;;;;;;2.75;2.75;;;;;19.06;36.11;102931.81;5070770;27;51113;-52
2022/01/29 04:57:53;;;;;;;;;3.75;3.25;;;;;19.06;36.19;102925.44;5069664;28;50903;-53
2022/01/29 05:00:22;;;;;;;;;3.00;2.00;;;;;19.05;36.16;102927.34;5066847;28;51625;-51
2022/01/29 05:02:52;;;;;;;;;2.00;2.00;;;;;19.06;36.01;102919.97;5072653;28;51038;-52
2022/01/29 05:05:18;;;;;;;;;3.00;3.00;;;;;19.04;36.14;102918.25;5068488;28;51153;-53
2022/01/29 05:07:44;;;;;;;;;2.00;2.00;;;;;19.04;36.20;102920.13;5071216;28;51178;-51
2022/01/29 05:10:10;;;;;;;;;4.00;3.75;;;;;19.03;36.19;102930.25;5067872;28;51080;-49
2022/01/29 05:12:59;;;;;;;;;4.00;4.00;;;;;19.03;36.28;102934.88;5066949;28;51388;-53
2022/01/29 05:15:44;;;;;;;;;1.50;1.50;;;;;19.02;36.20;102945.00;5074636;28;51184;-53
2022/01/29 05:29:08;;;;;;;;;1.75;1.75;;;;;19.00;36.23;102922.34;5066536;28;51182;-55
2022/01/29 05:31:33;;;;;;;;;3.00;3.00;;;;;19.00;36.30;102932.47;5069228;28;51202;-54
2022/01/29 05:34:00;;;;;;;;;2.75;2.25;;;;;18.99;36.37;102934.34;5070174;27;51131;-55
2022/01/29 05:36:26;;;;;;;;;4.00;2.00;;;;;18.99;36.41;102936.25;5070645;27;50991;-55
2022/01/29 05:38:51;;;;;;;;;3.00;3.00;;;;;19.00;36.17;102929.72;5069567;28;51092;-54
2022/01/29 05:41:17;;;;;;;;;3.50;3.50;;;;;18.98;36.37;102924.41;5066476;28;51601;-52
2022/01/29 05:43:45;;;;;;;;;3.25;3.00;;;;;18.98;36.24;102927.16;5063441;28;51240;-52
2022/01/29 05:46:11;;;;;;;;;1.50;1.25;;;;;18.98;36.29;102907.06;5067319;28;50944;-52
2022/01/29 05:48:36;;;;;;;;;2.50;2.50;;;;;18.97;36.32;102919.06;5073765;28;50983;-49
2022/01/29 05:51:02;;;;;;;;;4.25;4.00;;;;;18.98;36.31;102916.16;5067898;28;50888;-50
2022/01/29 05:53:27;;;;;;;;;5.50;4.00;;;;;18.96;36.51;102909.94;5073586;28;51072;-52
2022/01/29 05:55:52;;;;;;;;;3.00;3.00;;;;;18.96;36.45;102909.09;5068352;28;50931;-49
2022/01/29 05:58:18;;;;;;;;;2.25;2.25;;;;;18.96;36.31;102912.69;5067387;28;51243;-48
2022/01/29 06:00:43;;;;;;;;;3.00;1.75;;;;;18.96;36.58;102911.81;5070874;28;51711;-49
2022/01/29 06:03:10;;;;;;;;;3.00;3.00;;;;;18.96;36.40;102920.94;5067283;28;51100;-49
2022/01/29 06:05:37;;;;;;;;;2.00;2.00;;;;;18.95;36.54;102913.72;5067156;28;51025;-48
2022/01/29 06:08:03;;;;;;;;;3.75;3.75;;;;;18.94;36.70;102902.91;5068560;28;51376;-49
2022/01/29 06:10:29;;;;;;;;;3.50;3.50;;;;;18.94;36.36;102909.25;5067645;28;52030;-49
2022/01/29 06:13:05;;;;;;;;;3.00;2.00;;;;;18.94;36.53;102903.75;5060730;28;51059;-50
2022/01/29 06:15:38;;;;;;;;;2.25;2.25;;;;;18.93;36.49;102903.94;5068756;27;51334;-52
2022/01/29 06:18:03;;;;;;;;;3.00;3.00;;;;;18.93;36.46;102907.53;5070635;28;51089;-48
2022/01/29 06:20:29;;;;;;;;;2.25;2.25;;;;;18.92;36.50;102914.06;5069457;28;51714;-50
2022/01/29 06:22:55;;;;;;;;;5.00;3.00;;;;;18.92;36.60;102907.69;5066893;28;51970;-50
2022/01/29 06:25:21;;;;;;;;;5.00;3.00;;;;;18.92;36.49;102922.28;5071059;28;51199;-48
2022/01/29 06:27:46;;;;;;;;;4.00;3.25;;;;;18.93;36.66;102934.13;5061468;28;51080;-46
2022/01/29 06:30:12;;;;;;;;;5.75;5.75;;;;;18.93;36.87;102926.75;5067516;28;51065;-49
2022/01/29 06:32:38;;;;;;;;;6.00;6.00;;;;;18.91;36.84;102931.56;5068428;28;50893;-46
2022/01/29 06:35:04;;;;;;;;;7.50;7.50;;;;;18.90;36.98;102920.75;5090702;27;51112;-46
2022/01/29 06:37:29;;;;;;;;;10.00;7.50;;;;;18.88;37.16;102926.41;5066017;28;51641;-47
2022/01/29 06:39:55;;;;;;;;;6.00;5.75;;;;;18.87;37.26;102923.81;5067220;28;51909;-46
2022/01/29 06:42:20;;;;;;;;;7.75;6.25;;;;;18.84;37.43;102921.38;5069197;28;52073;-47
2022/01/29 06:44:46;;;;;;;;;8.75;6.75;;;;;18.81;37.46;102930.81;5069791;28;50928;-46
2022/01/29 06:47:11;;;;;;;;;10.25;7.00;;;;;18.79;37.45;102918.25;5067568;28;51078;-48
2022/01/29 06:49:36;;;;;;;;;8.50;6.75;;;;;18.77;37.53;102918.44;5059802;28;51832;-46
2022/01/29 06:52:02;;;;;;;;;6.25;5.75;;;;;18.73;37.62;102909.63;5064588;28;51904;-47
2022/01/29 06:54:27;;;;;;;;;7.00;6.00;;;;;18.74;38.11;102903.13;5067797;27;51089;-46
2022/01/29 06:56:53;;;;;;;;;4.25;4.00;;;;;18.80;38.19;102901.63;5066266;28;51222;-46
2022/01/29 06:59:18;;;;;;;;;4.50;4.00;;;;;18.91;38.24;102905.97;5066392;28;51850;-49
2022/01/29 07:01:43;;;;;;;;;3.75;3.75;;;;;19.01;38.20;102904.84;5064958;28;50924;-50
2022/01/29 07:04:09;;;;;;;;;4.00;4.00;;;;;19.12;37.92;102906.44;5072786;28;50909;-48
2022/01/29 07:06:36;;;;;;;;;3.00;2.75;;;;;19.24;37.91;102913.38;5067884;28;51414;-51
2022/01/29 07:09:02;;;;;;;;;3.50;3.25;;;;;19.36;37.83;102915.81;5068523;28;52656;-49
2022/01/29 07:11:27;;;;;;;;;4.00;3.00;;;;;19.48;37.68;102918.09;5071187;28;51378;-50
2022/01/29 07:14:01;;;;;;;;;2.50;2.00;;;;;19.58;37.27;102907.84;5064815;28;51321;-47
2022/01/29 07:16:27;;;;;;;;;2.00;2.00;;;;;19.70;37.16;102902.09;5070578;28;51253;-52
2022/01/29 07:18:52;;;;;;;;;4.00;1.25;;;;;19.81;37.24;102899.88;5061727;28;51193;-54
2022/01/29 07:21:18;;;;;;;;;4.00;2.25;;;;;19.92;36.84;102898.69;5070117;28;51061;-50
2022/01/29 07:23:44;;;;;;;;;1.25;1.25;;;;;20.01;37.05;102894.94;5066132;28;50932;-51
2022/01/29 07:26:09;;;;;;;;;1.75;1.75;;;;;20.11;36.61;102903.88;5068672;28;50979;-50
2022/01/29 07:28:34;;;;;;;;;1.00;0.75;;;;;20.21;36.49;102892.69;5069552;28;51851;-51
2022/01/29 07:31:01;;;;;;;;;3.25;1.75;;;;;20.29;36.25;102889.94;5065129;28;51132;-52
2022/01/29 07:33:27;;;;;;;;;3.25;2.00;;;;;20.37;36.56;102884.44;5060248;28;51102;-51
2022/01/29 07:35:55;;;;;;;;;1.75;0.75;;;;;20.47;36.41;102900.81;5068090;28;51130;-51
2022/01/29 07:38:20;;;;;;;;;2.00;1.00;;;;;20.53;36.06;102885.47;5061003;28;51388;-52
2022/01/29 07:40:45;;;;;;;;;1.25;1.25;;;;;20.60;36.62;102886.50;5067685;28;50826;-54
2022/01/29 07:43:11;;;;;;;;;0.75;0.75;;;;;20.65;36.35;102906.16;5065293;28;51109;-49
2022/01/29 07:45:36;;;;;;;;;2.00;2.00;;;;;20.71;35.85;102900.78;5065985;28;51282;-53
2022/01/29 07:48:01;;;;;;;;;2.25;1.50;;;;;20.72;36.27;102909.91;5071857;28;51622;-50
2022/01/29 07:50:27;;;;;;;;;2.00;2.00;;;;;20.72;36.17;102907.16;5065602;28;50973;-52
2022/01/29 07:52:54;;;;;;;;;4.00;1.00;;;;;20.70;36.29;102903.72;5068766;28;51130;-51
2022/01/29 07:55:19;;;;;;;;;1.00;1.00;;;;;20.66;36.13;102908.72;5064530;28;51079;-52
2022/01/29 07:57:45;;;;;;;;;1.75;1.00;;;;;20.63;36.65;102908.19;5060169;28;51661;-52
2022/01/29 08:00:11;;;;;;;;;2.00;1.75;;;;;20.60;36.38;102900.28;5063357;28;51079;-52
2022/01/29 08:02:36;;;;;;;;;1.75;1.75;;;;;20.56;36.52;102894.28;5066398;28;50972;-53
2022/01/29 08:05:02;;;;;;;;;1.25;1.25;;;;;20.54;36.46;102906.50;5068216;28;51106;-50
2022/01/29 08:07:27;;;;;;;;;1.25;1.00;;;;;20.51;36.61;102899.41;5070242;28;52523;-52
2022/01/29 08:09:53;;;;;;;;;3.50;1.75;;;;;20.47;36.53;102903.56;5063170;28;51071;-50
2022/01/29 08:12:18;;;;;;;;;1.75;1.75;;;;;20.46;37.06;102901.84;5067275;28;51174;-51
2022/01/29 08:14:44;;;;;;;;;2.00;2.00;;;;;20.43;36.88;102894.81;5066717;28;51470;-51
2022/01/29 08:17:09;;;;;;;;;1.50;1.50;;;;;20.42;37.19;102900.41;5062801;28;53120;-52
2022/01/29 08:19:34;;;;;;;;;3.00;1.00;;;;;20.41;36.83;102895.94;5066406;28;50981;-50
2022/01/29 08:22:00;;;;;;;;;3.00;3.00;;;;;20.38;37.20;102894.41;5067985;28;52198;-52
2022/01/29 08:24:26;;;;;;;;;1.50;1.50;;;;;20.38;37.29;102888.91;5069172;28;51331;-55
2022/01/29 08:26:51;;;;;;;;;2.00;2.00;;;;;20.36;37.63;102882.72;5066841;28;52686;-54
2022/01/29 08:29:16;;;;;;;;;4.50;3.00;;;;;20.35;37.11;102892.00;5061661;28;50908;-52
2022/01/29 08:31:42;;;;;;;;;2.00;1.00;;;;;20.34;37.24;102883.94;5065391;28;51346;-51
2022/01/29 08:34:07;;;;;;;;;3.25;2.00;;;;;20.32;37.21;102883.22;5066097;28;51305;-47
2022/01/29 08:36:33;;;;;;;;;1.25;1.25;;;;;20.30;36.86;102883.41;5066713;28;51689;-53
2022/01/29 08:38:58;;;;;;;;;1.25;1.25;;;;;20.31;37.14;102892.50;5059525;28;51230;-49
2022/01/29 08:41:24;;;;;;;;;1.75;1.75;;;;;20.28;37.04;102890.97;5069859;28;51051;-49
2022/01/29 08:43:49;;;;;;;;;2.00;2.00;;;;;20.27;37.50;102892.00;5067248;28;51269;-48
2022/01/29 08:46:14;;;;;;;;;1.00;1.00;;;;;20.28;36.73;102892.88;5069745;28;51319;-50
2022/01/29 08:48:41;;;;;;;;;4.00;2.50;;;;;20.26;37.06;102898.53;5060599;28;51102;-50
2022/01/29 08:51:06;;;;;;;;;1.00;1.00;;;;;20.24;36.89;102886.84;5066624;28;51103;-49
2022/01/29 08:53:32;;;;;;;;;2.75;1.50;;;;;20.23;36.58;102895.28;5064668;28;50944;-50
2022/01/29 08:55:58;;;;;;;;;1.00;1.00;;;;;20.22;36.79;102886.19;5063582;28;52278;-46
2022/01/29 08:58:23;;;;;;;;;3.00;2.50;;;;;20.21;36.87;102886.31;5059542;28;51134;-50
2022/01/29 09:00:49;;;;;;;;;1.00;1.00;;;;;20.18;36.48;102877.38;5068266;28;51225;-48
2022/01/29 09:03:16;;;;;;;;;1.00;1.00;;;;;20.17;36.93;102886.66;5066269;28;51229;-48
2022/01/29 09:05:46;;;;;;;;;1.25;1.00;;;;;20.17;36.77;102883.06;5066800;28;51095;-52
2022/01/29 09:08:14;;;;;;;;;3.00;2.00;;;;;20.15;36.59;102885.97;5064083;28;51137;-48
2022/01/29 09:10:39;;;;;;;;;2.00;2.00;;;;;20.15;36.84;102887.88;5067276;28;50878;-50
2022/01/29 09:13:05;;;;;;;;;1.25;1.25;;;;;20.14;36.26;102880.66;5069457;28;51201;-51
2022/01/29 09:15:30;;;;;;;;;1.25;1.25;;;;;20.13;36.85;102877.06;5088184;27;52579;-50
2022/01/29 09:17:56;;;;;;;;;2.25;1.50;;;;;20.13;36.69;102881.69;5066408;28;51139;-48
2022/01/29 09:20:21;;;;;;;;;2.00;2.00;;;;;20.12;36.44;102880.84;5070787;28;50985;-47
2022/01/29 09:22:46;;;;;;;;;2.00;2.00;;;;;20.12;36.77;102866.22;5071372;28;51451;-50
2022/01/29 09:25:12;;;;;;;;;2.25;2.00;;;;;20.13;37.19;102885.31;5068056;27;51535;-50
2022/01/29 09:27:38;;;;;;;;;2.50;2.00;;;;;20.13;36.96;102881.69;5067550;28;51110;-47
2022/01/29 09:30:05;;;;;;;;;2.00;2.00;;;;;20.12;36.54;102886.34;5071567;28;51311;-49
2022/01/29 09:32:31;;;;;;;;;4.25;4.00;;;;;20.11;36.78;102870.88;5069561;28;51351;-53
2022/01/29 09:34:56;;;;;;;;;5.50;3.00;;;;;20.09;36.44;102872.91;5069746;28;51556;-51
2022/01/29 09:37:21;;;;;;;;;4.25;4.25;;;;;20.07;37.04;102865.84;5066258;28;51128;-48
2022/01/29 09:39:47;;;;;;;;;4.50;3.75;;;;;20.04;36.76;102867.06;5070934;28;51054;-48
2022/01/29 09:42:13;;;;;;;;;4.50;3.50;;;;;20.01;36.95;102859.16;5062786;28;51877;-47
2022/01/29 09:44:41;;;;;;;;;4.00;4.00;;;;;20.01;37.15;102866.53;5067309;27;52541;-50
2022/01/29 09:47:07;;;;;;;;;3.00;3.00;;;;;19.98;36.84;102864.13;5067076;28;51226;-51
2022/01/29 09:49:34;;;;;;;;;4.75;3.00;;;;;19.95;36.86;102854.34;5072709;28;51009;-50
2022/01/29 09:52:00;;;;;;;;;3.50;2.25;;;;;19.92;36.61;102862.94;5067623;28;50948;-47
2022/01/29 09:54:26;;;;;;;;;2.75;2.75;;;;;19.89;36.87;102866.84;5066704;27;51008;-48
2022/01/29 09:56:51;;;;;;;;;2.75;2.75;;;;;19.87;36.83;102866.19;5066898;28;51055;-50
2022/01/29 09:59:16;;;;;;;;;6.00;4.75;;;;;19.85;36.92;102870.13;5066926;28;51034;-51
2022/01/29 10:01:42;;;;;;;;;3.00;3.00;;;;;19.83;36.93;102875.81;5064699;28;51128;-46
2022/01/29 10:04:07;;;;;;;;;2.50;2.50;;;;;19.81;36.85;102877.00;5066795;28;51753;-47
2022/01/29 10:06:35;;;;;;;;;1.75;1.75;;;;;19.79;36.91;102877.16;5066160;28;50997;-49
2022/01/29 10:09:09;;;;;;;;;3.50;3.00;;;;;19.78;36.84;102877.34;5070354;28;50835;-49
2022/01/29 10:11:35;;;;;;;;;2.50;2.50;;;;;19.76;36.83;102879.41;5063075;28;51094;-46
2022/01/29 10:14:04;;;;;;;;;4.00;4.00;;;;;19.74;36.94;102886.97;5069198;27;51075;-47
2022/01/29 10:16:31;;;;;;;;;2.00;2.00;;;;;19.72;36.89;102881.63;5067573;28;51343;-49
2022/01/29 10:18:59;;;;;;;;;3.50;1.00;;;;;19.69;37.24;102870.94;5068174;28;51110;-52
2022/01/29 10:21:27;;;;;;;;;3.00;3.00;;;;;19.69;36.89;102884.69;5068554;28;50911;-46
2022/01/29 10:24:05;;;;;;;;;3.50;1.00;;;;;19.66;36.94;102875.94;5069136;27;51341;-48
2022/01/29 10:26:35;;;;;;;;;2.50;1.50;;;;;19.66;36.69;102887.78;5075219;28;51041;-52
2022/01/29 10:29:03;;;;;;;;;5.25;2.75;;;;;19.64;36.87;102878.00;5063850;28;50942;-46
2022/01/29 10:31:42;;;;;;;;;1.50;1.50;;;;;19.63;36.79;102876.28;5083587;27;51014;-49
2022/01/29 10:34:23;;;;;;;;;2.75;2.75;;;;;19.60;37.34;102878.34;5069061;27;51060;-49
2022/01/29 10:37:15;;;;;;;;;5.50;2.75;;;;;19.59;37.22;102879.38;5058519;28;51031;-48
2022/01/29 10:39:49;;;;;;;;;5.50;3.75;;;;;19.59;36.95;102881.22;5071471;28;51222;-46
2022/01/29 10:42:23;;;;;;;;;2.00;2.00;;;;;19.57;37.05;102881.41;5066654;28;51172;-47
2022/01/29 10:44:52;;;;;;;;;4.00;2.00;;;;;19.57;37.13;102872.28;5057956;28;51709;-47
2022/01/29 10:47:18;;;;;;;;;3.50;2.25;;;;;19.56;37.13;102876.06;5065677;28;51448;-48
2022/01/29 10:49:51;;;;;;;;;2.50;2.50;;;;;19.53;37.09;102866.25;5067520;28;51070;-45
2022/01/29 10:52:18;;;;;;;;;3.00;3.00;;;;;19.52;36.92;102869.16;5062106;28;51256;-49
2022/01/29 10:54:51;;;;;;;;;2.00;2.00;;;;;19.52;37.29;102866.41;5067828;28;52636;-50
2022/01/29 10:57:17;;;;;;;;;2.00;2.00;;;;;19.50;37.01;102871.22;5073415;28;50865;-50
2022/01/29 10:59:52;;;;;;;;;2.00;2.00;;;;;19.50;37.19;102876.72;5067162;28;51201;-46
2022/01/29 11:02:19;;;;;;;;;1.75;1.00;;;;;19.49;37.10;102867.63;5069143;28;51246;-47
2022/01/29 11:04:48;;;;;;;;;2.00;2.00;;;;;19.49;36.96;102870.38;5068082;28;51795;-47
2022/01/29 11:07:19;;;;;;;;;1.50;1.50;;;;;19.47;37.30;102872.41;5067490;28;51052;-47
2022/01/29 11:09:46;;;;;;;;;1.75;1.75;;;;;19.46;37.47;102873.44;5064292;28;51088;-48
2022/01/29 11:12:17;;;;;;;;;3.00;2.75;;;;;19.45;37.13;102871.72;5064365;28;51083;-48
2022/01/29 11:14:44;;;;;;;;;1.50;1.00;;;;;19.45;36.99;102879.97;5065935;27;52664;-47
2022/01/29 11:17:10;;;;;;;;;2.25;1.75;;;;;19.43;37.02;102873.78;5065615;28;51276;-48
2022/01/29 11:19:38;;;;;;;;;3.00;2.50;;;;;19.43;36.92;102882.03;5066213;28;51315;-48
2022/01/29 11:22:06;;;;;;;;;2.75;1.75;;;;;19.44;37.31;102888.38;5065256;28;51056;-46
2022/01/29 11:24:33;;;;;;;;;2.25;1.75;;;;;19.43;36.99;102881.16;5062669;28;51348;-49
2022/01/29 11:26:59;;;;;;;;;1.25;1.25;;;;;19.42;37.34;102874.81;5072712;28;51708;-49
2022/01/29 11:29:36;;;;;;;;;3.75;2.50;;;;;19.42;37.33;102876.69;5062470;28;51197;-51
2022/01/29 11:32:20;;;;;;;;;2.25;2.00;;;;;19.40;37.69;102878.75;5067257;28;51257;-48
2022/01/29 11:35:04;;;;;;;;;2.50;2.00;;;;;19.40;37.66;102879.63;5059353;28;51076;-47